Latest Coastal Weather Observations for Robe Airport

IDV60701

Issued at 1:11 am EDT Tuesday 23 December 2014 (issued every 10 minutes, with the page automatically refreshed every 10 minutes)

About coastal observations | Map of coastal stations | Coastal observations for VIC | Marine services | Other Formats
Station Details ID: 026105 Name: ROBE AIRFIELD Lat: -37.18 Lon: 139.81 Height: 3.0 m
Data from the previous 72 hours. | See also: Recent months at Robe Airport
Date/Time
EDT
Temp

°C
Wind Pressure Rain
since 9am
mm
Weather Cloud Vis
km
Sea
Height
m
Swell
Dir
 
Speed
knots
Gust
knots
hPa Trend Height
m
Period
s
Dir
23/01:00am 16.1 WSW 3 6 1008.5 - 1.4 - - - - - - -
23/12:30am 16.1 W 4 5 1008.6 - 1.4 - - - - - - -
23/12:00am 16.4 NW 3 4 1008.7 - 1.4 - - - - - - -
 
Date/Time
EDT
Temp

°C
Wind Pressure Rain
since 9am
mm
Weather Cloud Vis
km
Sea
Height
m
Swell
Dir
 
Speed
knots
Gust
knots
hPa Trend Height
m
Period
s
Dir
22/11:30pm 16.4 NW 3 3 1008.5 - 1.4 - - - - - - -
22/11:00pm 16.5 WNW 3 4 1008.8 - 1.4 - - - - - - -
22/10:30pm 16.7 W 3 4 1008.9 - 1.4 - - - - - - -
22/10:00pm 16.8 CALM 0 0 1008.9 - 1.4 - - - - - - -
22/09:30pm 17.0 SW 3 5 1009.0 - 1.2 Rain - - - - - -
22/09:00pm 17.8 W 2 4 1008.8 - 1.0 - - - - - - -
22/08:30pm 18.0 CALM 0 0 1008.7 - 0.8 - - - - - - -
22/08:00pm 18.2 CALM 0 0 1008.6 - 0.8 - - - - - - -
22/07:30pm 18.2 SSW 2 2 1007.8 - 0.6 - - - - - - -
22/07:00pm 18.4 S 4 5 1007.2 - 0.4 - - - - - - -
22/06:30pm 18.2 SSE 3 5 1007.2 - 0.4 - - - - - - -
22/06:00pm 18.1 SSW 5 7 1007.4 - 0.4 - - - - - - -
22/05:30pm 18.5 SSW 6 8 1007.7 - 0.4 - - - - - - -
22/05:00pm 19.7 SSW 6 9 1007.9 - 0.4 - - - - - - -
22/04:30pm 21.7 SW 4 5 1007.8 - 0.4 - - - - - - -
22/04:00pm 20.6 SSW 7 11 1007.9 - 0.4 - - - - - - -
22/03:30pm 21.2 SW 6 8 1008.4 - 0.4 - - - - - - -
22/03:00pm 21.6 WSW 4 5 1008.4 - 0.4 - - - - - - -
22/02:30pm 21.5 S 4 6 1008.2 - 0.4 - - - - - - -
22/02:00pm 21.4 SSW 9 12 1007.6 - 0.4 - - - - - - -
22/01:30pm 22.1 S 6 8 1008.4 - 0.4 - - - - - - -
22/01:00pm 21.5 SE 8 11 1008.3 - 0.4 - - - - - - -
22/12:30pm 18.7 SSE 13 18 1008.0 - 0.4 - - - - - - -
22/12:00pm 17.4 SSE 10 14 1008.3 - 0.4 - - - - - - -
22/11:30am 16.9 SE 7 11 1008.8 - 0.4 - - - - - - -
22/11:00am 16.5 SSE 10 14 1008.2 - 0.4 - - - - - - -
22/10:30am 16.4 SSW 6 12 1009.7 - 0.2 - - - - - - -
22/10:00am 17.1 WSW 4 6 1009.8 - 0.0 - - - - - - -
22/09:30am 18.2 W 5 12 1010.1 - 0.0 - - - - - - -
22/09:00am 17.5 E 5 9 1008.8 - 0.0 - - - - - - -
22/08:30am 17.1 ESE 5 8 1008.5 - 0.0 - - - - - - -
22/08:00am 16.6 SE 7 9 1008.2 - 0.0 - - - - - - -
22/07:30am 16.8 SE 6 10 1008.5 - 0.0 - - - - - - -
22/07:00am 16.6 ESE 8 12 1008.0 - 0.0 - - - - - - -
22/06:30am 16.5 SE 8 12 1008.0 - 0.0 - - - - - - -
22/06:00am 16.7 ESE 8 13 1008.1 - 0.0 - - - - - - -
22/05:30am 16.5 ESE 9 13 1008.2 - 0.0 - - - - - - -
22/05:00am 16.0 SE 9 13 1008.3 - 0.0 - - - - - - -
22/04:30am 16.1 SE 8 13 1009.4 - 0.0 - - - - - - -
22/04:00am 16.1 ESE 7 9 1010.2 - 0.0 - - - - - - -
22/03:30am 16.3 SE 6 10 1010.9 - 0.0 - - - - - - -
22/03:00am 16.3 SE 10 15 1010.4 - 0.0 - - - - - - -
22/02:30am 16.3 WSW 4 11 1011.7 - 0.0 - - - - - - -
22/02:25am 16.3 ESE 7 15 1012.0 - 0.0 - - - - - - -
22/02:00am 16.4 SE 17 24 1010.0 - 0.0 - - - - - - -
22/01:30am 16.1 SE 9 15 1011.5 - 0.0 - - - - - - -
22/01:00am 16.1 ESE 13 20 1011.1 - 0.0 - - - - - - -
22/12:30am 16.0 ESE 15 22 1011.3 - 0.0 - - - - - - -
22/12:00am 16.2 SE 17 25 1011.2 - 0.0 - - - - - - -
 
Date/Time
EDT
Temp

°C
Wind Pressure Rain
since 9am
mm
Weather Cloud Vis
km
Sea
Height
m
Swell
Dir
 
Speed
knots
Gust
knots
hPa Trend Height
m
Period
s
Dir
21/11:30pm 16.4 SE 13 17 1012.3 - 0.0 - - - - - - -
21/11:00pm 16.5 SE 14 22 1012.5 - 0.0 - - - - - - -
21/10:30pm 16.9 SSE 17 23 1013.0 - 0.0 - - - - - - -
21/10:00pm 16.4 SSE 14 19 1012.9 - 0.0 - - - - - - -
21/09:30pm 16.3 SSE 17 24 1012.6 - 0.0 - - - - - - -
21/09:00pm 16.4 SSE 17 24 1012.5 - 0.0 - - - - - - -
21/08:30pm 16.8 SSE 18 25 1012.6 - 0.0 - - - - - - -
21/08:00pm 17.2 SSE 15 21 1012.2 - 0.0 - - - - - - -
21/07:30pm 17.9 SSE 15 20 1012.0 - 0.0 - - - - - - -
21/07:00pm 18.7 SSE 14 19 1011.9 - 0.0 - - - - - - -
21/06:30pm 19.4 S 14 19 1011.8 - 0.0 - - - - - - -
21/06:00pm 21.7 S 13 18 1011.7 - 0.0 - - - - - - -
21/05:30pm 22.2 S 14 19 1011.9 - 0.0 - - - - - - -
21/05:00pm 22.8 SSE 14 19 1012.1 - 0.0 - - - - - - -
21/04:30pm 23.4 S 14 19 1012.2 - 0.0 - - - - - - -
21/04:00pm 22.9 S 14 18 1012.5 - 0.0 - - - - - - -
21/03:30pm 21.6 S 13 19 1012.6 - 0.0 - - - - - - -
21/03:00pm 22.6 SSE 13 17 1012.6 - 0.0 - - - - - - -
21/02:30pm 21.3 SSE 15 20 1013.3 - 0.0 - - - - - - -
21/02:00pm 22.3 S 14 19 1013.6 - 0.0 - - - - - - -
21/01:30pm 24.5 SSE 11 16 1013.6 - 0.0 - - - - - - -
21/01:00pm 23.6 SE 12 16 1013.7 - 0.0 - - - - - - -
21/12:30pm 23.7 SSE 10 15 1014.0 - 0.0 - - - - - - -
21/12:00pm 22.8 SSW 11 15 1013.9 - 0.0 - - - - - - -
21/11:30am 22.0 S 11 15 1014.1 - 0.0 - - - - - - -
21/11:00am 21.2 S 10 13 1014.0 - 0.0 - - - - - - -
21/10:30am 21.2 SSW 9 13 1013.9 - 0.0 - - - - - - -
21/10:00am 21.1 SSW 7 11 1013.6 - 0.0 - - - - - - -
21/09:30am 20.2 S 3 5 1013.3 - 0.0 - - - - - - -
21/09:00am 18.6 SSE 3 6 1013.1 - 0.0 - - - - - - -
21/08:30am 17.1 SE 4 5 1012.9 - 0.0 - - - - - - -
21/08:00am 15.0 S 4 5 1012.8 - 0.0 - - - - - - -
21/07:30am 13.3 S 3 4 1012.7 - 0.0 - - - - - - -
21/07:00am 11.6 S 3 4 1012.6 - 0.0 - - - - - - -
21/06:30am 10.8 SE 3 3 1012.2 - 0.0 - - - - - - -
21/06:00am 10.8 SE 3 4 1012.0 - 0.0 - - - - - - -
21/05:30am 11.1 SE 3 4 1012.2 - 0.0 - - - - - - -
21/05:00am 11.7 SE 4 5 1012.1 - 0.0 - - - - - - -
21/04:30am 11.5 SE 3 4 1012.2 - 0.0 - - - - - - -
21/04:00am 11.4 SE 4 5 1012.5 - 0.0 - - - - - - -
21/03:30am 11.5 SE 3 4 1013.2 - 0.0 - - - - - - -
21/03:00am 12.3 SE 4 5 1013.7 - 0.0 - - - - - - -
21/02:30am 12.3 E 6 8 1013.3 - 0.0 - - - - - - -
21/02:00am 12.8 ESE 6 8 1013.3 - 0.0 - - - - - - -
21/01:30am 13.1 ESE 7 9 1013.6 - 0.0 - - - - - - -
21/01:00am 13.5 SE 6 10 1014.3 - 0.0 - - - - - - -
21/12:30am 14.4 SE 8 10 1015.1 - 0.0 - - - - - - -
21/12:00am 14.8 SE 8 12 1015.3 - 0.0 - - - - - - -
 
Date/Time
EDT
Temp

°C
Wind Pressure Rain
since 9am
mm
Weather Cloud Vis
km
Sea
Height
m
Swell
Dir
 
Speed
knots
Gust
knots
hPa Trend Height
m
Period
s
Dir
20/11:30pm 15.1 SE 9 13 1015.4 - 0.0 - - - - - - -
20/11:00pm 15.3 SE 8 11 1015.9 - 0.0 - - - - - - -
20/10:30pm 14.9 SSE 9 11 1016.0 - 0.0 - - - - - - -
20/10:00pm 14.7 S 8 11 1016.3 - 0.0 - - - - - - -
20/09:30pm 15.0 S 7 10 1016.4 - 0.0 - - - - - - -
20/09:00pm 15.7 S 8 11 1016.5 - 0.0 - - - - - - -
20/08:30pm 16.7 S 9 13 1016.6 - 0.0 - - - - - - -
20/08:00pm 17.6 SSE 9 12 1016.4 - 0.0 - - - - - - -
20/07:30pm 18.0 S 10 13 1016.5 - 0.0 - - - - - - -
20/07:00pm 18.8 S 11 14 1016.3 - 0.0 - - - - - - -
20/06:30pm 19.0 SSW 10 13 1016.4 - 0.0 - - - - - - -
20/06:00pm 19.8 SSW 8 11 1016.4 - 0.0 - - - - - - -
20/05:30pm 19.4 S 8 11 1016.8 - 0.0 - - - - - - -
20/05:00pm 19.9 SSW 8 11 1017.0 - 0.0 - - - - - - -
20/04:30pm 19.8 SSW 8 13 1017.2 - 0.0 - - - - - - -
20/04:00pm 20.1 SSW 8 14 1017.5 - 0.0 - - - - - - -
20/03:30pm 20.0 SSW 7 13 1017.9 - 0.0 - - - - - - -
20/03:00pm 20.1 SSW 8 12 1018.6 - 0.0 - - - - - - -
20/02:30pm 19.6 SSW 7 11 1019.0 - 0.0 - - - - - - -
20/02:00pm 19.6 SSW 7 13 1019.3 - 0.0 - - - - - - -
20/01:30pm 19.6 SSW 7 13 1019.6 - 0.0 - - - - - - -
20/01:00pm 19.6 SW 7 12 1019.6 - 0.0 - - - - - - -
20/12:30pm 20.1 SW 7 11 1020.0 - 0.0 - - - - - - -
20/12:00pm 19.3 SW 7 12 1020.2 - 0.0 - - - - - - -
20/11:30am 19.4 SW 7 13 1020.2 - 0.0 - - - - - - -
20/11:00am 18.7 WSW 5 9 1020.4 - 0.0 - - - - - - -
20/10:30am 18.7 WSW 5 10 1020.5 - 0.0 - - - - - - -
20/10:00am 18.5 W 4 7 1020.7 - 0.0 - - - - - - -
20/09:30am 18.0 SW 6 9 1020.6 - 0.0 - - - - - - -
20/09:00am 17.1 WSW 3 6 1020.4 - 0.0 - - - - - - -
20/08:30am 16.7 W 2 4 1020.1 - 0.0 - - - - - - -
20/08:00am 16.2 S 2 4 1019.7 - 0.0 - - - - - - -
20/07:30am 14.4 CALM 0 0 1019.4 - 0.0 - - - - - - -
20/07:00am 13.4 CALM 0 0 1019.0 - 0.0 - - - - - - -
20/06:30am 12.1 CALM 0 0 1018.7 - 0.0 - - - - - - -
20/06:00am 11.8 CALM 0 0 1018.6 - 0.0 - - - - - - -
20/05:30am 12.7 CALM 0 0 1018.5 - 0.0 - - - - - - -
20/05:00am 12.0 CALM 0 0 1018.4 - 0.0 - - - - - - -
20/04:30am 11.3 CALM 0 0 1018.5 - 0.0 - - - - - - -
20/04:00am 10.3 CALM 0 0 1018.8 - 0.0 - - - - - - -
20/03:30am 9.3 CALM 0 0 1018.8 - 0.0 - - - - - - -
20/03:00am 9.3 CALM 0 0 1019.0 - 0.0 - - - - - - -
20/02:30am 10.4 CALM 0 0 1019.3 - 0.0 - - - - - - -
20/02:00am 10.6 CALM 0 0 1019.8 - 0.0 - - - - - - -

Other Formats:

Comma delimited format used in spreadsheet applications
http://www.bom.gov.au/fwo/IDV60701/IDV60701.95816.axf

JavaScript Object Notation format (JSON) in row-major order
http://www.bom.gov.au/fwo/IDV60701/IDV60701.95816.json